Aktualne dane pomiarowe

Uwaga, wersja testowa! Automatyczne pobieranie danych za pomocą narzędzi lub skryptów to umożliwiających jest zabronione.

Dane meteo z obszaru Polski uzyskane na podstawie depesz SYNOP pobieranych co godzinę z NWS. Najedź myszką na symbol przedstawiony w tabeli, aby uzyskać informacje co do jego znaczenia. Prosimy pamiętać, że to testowa wersja strony, która jeszcze nie jest ukończona. Stworzono również jest krótki FAQ dotyczący korzystania z tej podstrony Anomalie temperatury w chwili obecnej odniesione są do okresu referencyjnego 1951-2016. Okres ten będzie później zmieniony na 1981-2010. Kliknij ikonę aby pobrać plik CSV. Kliknij ikonę aby wygenerować mapę synoptyczną dla danego terminu.

Wybierz Datę:    

        

Sandomierz (12585)

Dane terminowe dla wybranej stacji. Kliknij datę, aby otrzymać dane z tego terminu dla wszystkich stacji.

TemperaturaZachmurzenieWiatrCiśnienieOpadyPogoda
 Data t td wb tx tn tg rh  Nt Nl Cl Cm Ch ws wd g1 g2 wx mslp ppp ch 24h 12h t ww ww w1 w2  
2019-06-19 23:00:00 18.5 17.2 17.6--- 9215.0--2wx---1011.9 986.3 -0.4---------
2019-06-19 22:00:00 19.2 17.5 18.0--- 9013.0--3wx---1012.2 986.7 -0.1---------
2019-06-19 21:00:00 19.9 18.0 18.5--- 8916.0--1wx--11012.2 986.7 -0.5---------
2019-06-19 20:00:00 19.7 17.5 18.1--- 878.0--1wx--11012.2 986.7 -0.8---wx-----
2019-06-19 19:00:00 20.6 16.8 18.0--- 7940.0--1wx--11012.2 986.8 0.1---------
2019-06-19 18:00:00 20.4 17.6 18.4 27.7 20.4- 8430.0--1wx-1011012.6 987.2 -0.2- 0.412wx-----
2019-06-19 17:00:00 21.2 18.0 18.9--- 8223.0--2wx--21012.9 987.5 -0.5---wx-----
2019-06-19 16:00:00 21.5 18.1 19.1--- 8123.0--4wx--41012.0 986.7 -0.9---wx-----
2019-06-19 15:00:00 23.2 17.4 19.3--- 7030.0--5wx---1012.6 987.4 -0.6---------
2019-06-19 14:00:00 22.6 19.0 20.0--- 8021.0--4wx-1041013.3 988.0 -0.4---wx-----
2019-06-19 13:00:00 24.3 16.8 19.3--- 6329.0--4wx--41012.7 987.6 -1.1---------
2019-06-19 12:00:00 26.0 15.4 19.2--- 5230.0--5wx--51013.0 988.0 -1.2- 0.06------
2019-06-19 11:00:00 26.3 18.2 20.8--- 6120.0--3wx--31013.4 988.4 -1.0---------
2019-06-19 10:00:00 25.9 18.3 20.8--- 6319.0--2wx--21013.7 988.7 -0.9---------
2019-06-19 09:00:00 25.1 19.0 20.9--- 6920.0--2wx--21014.3 989.2 -0.7---------
2019-06-19 08:00:00 24.3 18.5 20.3--- 7017.0--2wx---1014.6 989.4 -0.7---------
2019-06-19 07:00:00 21.6 17.6 18.8--- 7822.0--2wx--21015.0 989.6 -0.4---------
2019-06-19 06:00:00 20.5 16.7 17.9 22.7 18.6 18 7930.0--2wx--21015.4 989.9 -0.1- 0.012----- 9.3
2019-06-19 05:00:00 20.6 16.6 17.8--- 7829.0--3wx--31015.6 990.1 -0.1---------
2019-06-19 04:00:00 19.3 15.6 16.8--- 7945.0--2wx--21015.6 990.0 -0.6---------
2019-06-19 03:00:00 19.2 15.7 16.8--- 8045.0--3wx---1015.6 990.0 -1.1---------
2019-06-19 02:00:00 19.2 15.7 16.8--- 8045.0--2wx--21015.8 990.2 -1.1---------
2019-06-19 01:00:00 19.2 15.9 16.9--- 8135.0--2wx--21016.2 990.6 -1.2---------
2019-06-19 00:00:00 19.7 16.3 17.3--- 8135.0--2wx--21016.7 991.1 -0.8- 0.06------
2019-06-18 23:00:00 18.8 16.4 17.1--- 8629.0--2wx--21017.0 991.3 -0.6---------
2019-06-18 22:00:00 19.0 16.6 17.3--- 8630.0--2wx---1017.5 991.8 -0.1---------
2019-06-18 21:00:00 19.6 16.4 17.4--- 8235.0--2wx--21017.5 991.9 0.2---------
2019-06-18 20:00:00 20.3 16.3 17.5--- 7813.0--1wx--11017.5 991.9 0.1---------
2019-06-18 19:00:00 21.3 16.7 18.1--- 7540.0--1wx--11017.4 991.9 -0.2---------
2019-06-18 18:00:00 22.7 16.9 18.8 24.4 19.0- 7045.0--1wx--11017.0 991.7 -0.7- 0.012------
2019-06-18 17:00:00 23.7 16.5 18.9--- 6445.0--2wx---1017.1 991.8 -1.2---------
2019-06-18 16:00:00 24.0 16.5 19.0--- 6335.0--3wx--31017.3 992.1 -1.4---------
2019-06-18 15:00:00 24.0 15.5 18.5--- 5935.0--3wx---1017.7 992.4 -1.6---------
2019-06-18 14:00:00 24.0 16.0 18.7--- 6135.0--3wx--31018.3 993.0 -1.3---------
2019-06-18 13:00:00 23.4 16.0 18.5--- 6330.0--3wx--31018.8 993.5 -0.8---------
2019-06-18 12:00:00 22.9 16.0 18.3--- 6535.0--2wx--21019.4 994.0 -0.6- 0.06------
2019-06-18 11:00:00 22.4 15.5 17.9--- 6540.0--2wx--21019.7 994.3 -0.6---------
2019-06-18 10:00:00 22.5 14.6 17.4--- 6135.0--3wx--31019.7 994.3 -0.7---------
2019-06-18 09:00:00 22.4 15.7 18.0--- 6630.0--2wx--21020.0 994.6 -0.6---------
2019-06-18 08:00:00 21.3 15.4 17.4--- 6930.0--2wx--21020.5 994.9 0.0---------
2019-06-18 07:00:00 21.0 15.8 17.5--- 7228.0--2wx---1020.6 995.0 0.3---------
2019-06-18 06:00:00 19.0 15.5 16.6 19.7 13.9 14 8027.0--2wx--21021.0 995.2 0.6 0.1 0.012----- 4.0
2019-06-18 05:00:00 16.9 15.1 15.6--- 8920.0--2wx--21020.8 994.9 0.3---------
2019-06-18 04:00:00 15.5 14.2 14.6--- 9216.0--2wx--21020.8 994.7 0.0---------
2019-06-18 03:00:00 13.9 13.1 13.3--- 959.0--2wx--21020.8 994.6 -0.2---------
2019-06-18 02:00:00 14.7 13.7 14.0--- 9415.0--2wx---1020.7 994.6 -0.4---------
2019-06-18 01:00:00 14.3 13.7 13.8--- 9611.0--2wx---1020.9 994.7 -0.1---------
2019-06-18 00:00:00 14.5 13.5 13.8--- 9410.0--2wx--21021.0 994.8 0.0- 0.06------
1.8 ms

 

Print Friendly, PDF & Email